createdAt,value
2018-02-19T00:00:36.595Z,100164.83
2018-02-19T00:03:05.124Z,100166.65
2018-02-19T00:05:33.610Z,100166.00
2018-02-19T00:08:02.143Z,100163.56
2018-02-19T00:10:30.616Z,100164.30
2018-02-19T00:12:59.251Z,100160.09
2018-02-19T00:15:27.777Z,100149.27
2018-02-19T00:17:56.270Z,100154.92
2018-02-19T00:20:24.770Z,100153.23
2018-02-19T00:22:53.258Z,100151.34
2018-02-19T00:25:21.770Z,100152.52
2018-02-19T00:27:50.283Z,100150.51
2018-02-19T00:30:18.796Z,100150.28
2018-02-19T00:32:47.270Z,100147.37
2018-02-19T00:35:15.763Z,100145.58
2018-02-19T00:37:44.235Z,100146.64
2018-02-19T00:40:12.715Z,100148.84
2018-02-19T00:42:41.237Z,100148.55
2018-02-19T00:45:09.710Z,100148.37
2018-02-19T00:47:38.161Z,100146.01
2018-02-19T00:50:06.672Z,100141.59
2018-02-19T00:52:35.142Z,100148.66
2018-02-19T00:55:03.637Z,100133.41
2018-02-19T00:57:32.124Z,100143.44
2018-02-19T01:00:00.633Z,100138.47
2018-02-19T01:02:29.194Z,100141.31
2018-02-19T01:04:57.666Z,100146.70
2018-02-19T01:07:26.130Z,100145.69
2018-02-19T01:09:54.637Z,100144.30
2018-02-19T01:12:23.184Z,100145.42
2018-02-19T01:14:51.671Z,100137.98
2018-02-19T01:17:20.170Z,100141.27
2018-02-19T01:19:48.638Z,100142.61
2018-02-19T01:22:17.150Z,100146.23
2018-02-19T01:24:45.636Z,100143.55
2018-02-19T01:27:14.157Z,100141.08
2018-02-19T01:29:42.629Z,100143.23
2018-02-19T01:32:11.175Z,100136.31
2018-02-19T01:34:39.732Z,100137.28
2018-02-19T01:37:08.206Z,100145.31
2018-02-19T01:39:36.737Z,100135.89
2018-02-19T01:42:05.209Z,100134.30
2018-02-19T01:44:33.715Z,100140.02
2018-02-19T01:47:02.230Z,100145.22
2018-02-19T01:49:30.739Z,100144.47
2018-02-19T01:51:59.246Z,100143.23
2018-02-19T01:54:27.747Z,100146.45
2018-02-19T01:56:56.227Z,100149.62
2018-02-19T01:59:24.738Z,100145.39
2018-02-19T02:01:53.210Z,100149.63
2018-02-19T02:04:21.765Z,100145.13
2018-02-19T02:06:50.258Z,100150.47
2018-02-19T02:09:18.726Z,100144.78
2018-02-19T02:11:47.252Z,100147.00
2018-02-19T02:14:15.739Z,100140.58
2018-02-19T02:16:44.214Z,100144.54
2018-02-19T02:19:12.752Z,100136.32
2018-02-19T02:21:41.273Z,100139.95
2018-02-19T02:24:09.790Z,100133.70
2018-02-19T02:26:38.295Z,100137.97
2018-02-19T02:29:06.819Z,100145.27
2018-02-19T02:31:35.303Z,100148.70
2018-02-19T02:34:03.826Z,100143.39
2018-02-19T02:36:32.288Z,100149.89
2018-02-19T02:39:00.753Z,100149.60
2018-02-19T02:41:29.264Z,100148.41
2018-02-19T02:43:57.748Z,100149.19
2018-02-19T02:46:26.291Z,100148.25
2018-02-19T02:48:54.776Z,100152.74
2018-02-19T02:51:23.293Z,100153.71
2018-02-19T02:53:51.778Z,100154.31
2018-02-19T02:56:20.249Z,100155.84
2018-02-19T02:58:48.754Z,100150.57
2018-02-19T03:01:17.255Z,100156.55
2018-02-19T03:03:45.775Z,100156.06
2018-02-19T03:06:14.262Z,100161.95
2018-02-19T03:08:42.836Z,100161.70
2018-02-19T03:11:11.354Z,100160.28
2018-02-19T03:13:39.910Z,100152.52
2018-02-19T03:16:08.406Z,100156.64
2018-02-19T03:18:36.934Z,100157.64
2018-02-19T03:21:05.462Z,100159.80
2018-02-19T03:23:33.974Z,100154.38
2018-02-19T03:26:02.610Z,100155.08
2018-02-19T03:28:31.118Z,100156.05
2018-02-19T03:30:59.603Z,100158.27
2018-02-19T03:33:28.091Z,100159.83
2018-02-19T03:35:56.662Z,100160.02
2018-02-19T03:38:25.138Z,100149.55
2018-02-19T03:40:53.609Z,100158.41
2018-02-19T03:43:22.136Z,100163.48
2018-02-19T03:45:50.664Z,100157.85
2018-02-19T03:48:19.232Z,100153.44
2018-02-19T03:50:47.714Z,100156.55
2018-02-19T03:53:16.226Z,100157.37
2018-02-19T03:55:44.725Z,100155.44
2018-02-19T03:58:13.238Z,100158.69
2018-02-19T04:00:41.730Z,100157.45
2018-02-19T04:03:10.282Z,100154.42
2018-02-19T04:05:38.749Z,100156.41
2018-02-19T04:08:07.255Z,100162.84
2018-02-19T04:10:35.738Z,100158.69
2018-02-19T04:13:04.246Z,100155.47
2018-02-19T04:15:33.512Z,100156.41
2018-02-19T04:18:02.042Z,100154.34
2018-02-19T04:20:30.520Z,100156.82
2018-02-19T04:22:58.983Z,100165.23
2018-02-19T04:25:27.494Z,100166.39
2018-02-19T04:27:56.023Z,100163.77
2018-02-19T04:30:24.494Z,100172.03
2018-02-19T04:32:52.997Z,100165.22
2018-02-19T04:35:21.565Z,100165.56
2018-02-19T04:37:50.050Z,100165.66
2018-02-19T04:40:18.567Z,100168.05
2018-02-19T04:42:47.077Z,100173.69
2018-02-19T04:45:18.961Z,100175.45
2018-02-19T04:47:47.443Z,100168.95
2018-02-19T04:50:15.932Z,100170.42
2018-02-19T04:52:44.459Z,100167.84
2018-02-19T04:55:12.938Z,100171.34
2018-02-19T04:57:41.451Z,100169.29
2018-02-19T05:00:09.963Z,100168.58
2018-02-19T05:02:38.435Z,100170.08
2018-02-19T05:05:06.916Z,100172.47
2018-02-19T05:07:35.448Z,100170.41
2018-02-19T05:10:03.978Z,100166.60
2018-02-19T05:12:32.492Z,100175.68
2018-02-19T05:15:00.958Z,100165.58
2018-02-19T05:17:29.462Z,100168.50
2018-02-19T05:19:57.951Z,100155.49
2018-02-19T05:22:26.466Z,100167.96
2018-02-19T05:24:54.930Z,100169.23
2018-02-19T05:27:23.399Z,100170.72
2018-02-19T05:29:51.914Z,100169.63
2018-02-19T05:32:20.378Z,100174.16
2018-02-19T05:34:48.862Z,100178.36
2018-02-19T05:37:17.334Z,100177.56
2018-02-19T05:39:45.886Z,100178.86
2018-02-19T05:42:14.350Z,100196.06
2018-02-19T05:44:42.866Z,100191.05
2018-02-19T05:47:11.370Z,100185.28
2018-02-19T05:49:39.918Z,100186.41
2018-02-19T05:52:08.418Z,100188.58
2018-02-19T05:54:36.974Z,100196.53
2018-02-19T05:57:05.446Z,100196.66
2018-02-19T05:59:33.959Z,100195.83
2018-02-19T06:02:02.442Z,100202.55
2018-02-19T06:04:30.909Z,100212.61
2018-02-19T06:06:59.556Z,100208.59
2018-02-19T06:09:28.380Z,100211.91
2018-02-19T06:11:56.906Z,100216.13
2018-02-19T06:14:25.409Z,100205.83
2018-02-19T06:16:53.882Z,100210.92
2018-02-19T06:19:22.454Z,100204.20
2018-02-19T06:21:51.396Z,100210.68
2018-02-19T06:24:20.061Z,100215.31
2018-02-19T06:26:48.585Z,100217.52
2018-02-19T06:29:17.058Z,100190.81
2018-02-19T06:31:46.946Z,100208.67
2018-02-19T06:34:15.418Z,100218.16
2018-02-19T06:36:43.889Z,100222.75
2018-02-19T06:39:12.650Z,100207.14
2018-02-19T06:41:41.149Z,100195.69
2018-02-19T06:44:09.710Z,100227.55
2018-02-19T06:46:38.192Z,100220.55
2018-02-19T06:49:06.672Z,100209.67
2018-02-19T06:51:35.143Z,100227.59
2018-02-19T06:54:03.681Z,100226.30
2018-02-19T06:56:32.513Z,100235.34
2018-02-19T06:59:01.005Z,100235.31
2018-02-19T07:01:29.475Z,100234.08
2018-02-19T07:03:57.970Z,100239.73
2018-02-19T07:06:26.470Z,100232.65
2018-02-19T07:08:54.982Z,100235.59
2018-02-19T07:11:23.446Z,100244.13
2018-02-19T07:13:51.960Z,100229.23
2018-02-19T07:16:20.443Z,100221.19
2018-02-19T07:18:48.950Z,100227.30
2018-02-19T07:21:17.418Z,100232.39
2018-02-19T07:23:45.913Z,100225.75
2018-02-19T07:26:14.430Z,100232.63
2018-02-19T07:28:42.916Z,100231.31
2018-02-19T07:31:11.422Z,100212.03
2018-02-19T07:33:39.886Z,100236.02
2018-02-19T07:36:08.414Z,100222.16
2018-02-19T07:38:36.933Z,100235.64
2018-02-19T07:41:05.453Z,100232.12
2018-02-19T07:43:34.030Z,100240.14
2018-02-19T07:46:02.498Z,100246.28
2018-02-19T07:48:31.046Z,100238.91
2018-02-19T07:50:59.550Z,100231.03
2018-02-19T07:53:28.032Z,100246.42
2018-02-19T07:55:56.534Z,100248.28
2018-02-19T07:58:25.038Z,100235.08
2018-02-19T08:00:53.552Z,100254.62
2018-02-19T08:03:22.062Z,100254.42
2018-02-19T08:05:50.522Z,100249.63
2018-02-19T08:08:19.011Z,100247.88
2018-02-19T08:10:47.522Z,100236.00
2018-02-19T08:13:15.995Z,100226.25
2018-02-19T08:15:44.498Z,100255.57
2018-02-19T08:18:12.961Z,100260.23
2018-02-19T08:20:41.469Z,100264.06
2018-02-19T08:23:09.939Z,100256.19
2018-02-19T08:25:38.410Z,100252.55
2018-02-19T08:28:06.952Z,100263.70
2018-02-19T08:30:35.430Z,100256.35
2018-02-19T08:33:03.954Z,100259.99
2018-02-19T08:35:32.422Z,100255.13
2018-02-19T08:38:00.951Z,100259.25
2018-02-19T08:40:29.444Z,100255.02
2018-02-19T08:42:57.906Z,100251.80
2018-02-19T08:45:26.406Z,100257.39
2018-02-19T08:47:54.905Z,100256.27
2018-02-19T08:50:23.449Z,100254.91
2018-02-19T08:52:51.982Z,100256.25
2018-02-19T08:55:20.463Z,100261.45
2018-02-19T08:57:48.938Z,100222.09
2018-02-19T09:00:17.471Z,100257.72
2018-02-19T09:02:45.974Z,100246.20
2018-02-19T09:05:14.466Z,100266.23
2018-02-19T09:07:43.000Z,100266.23
2018-02-19T09:10:11.498Z,100267.36
2018-02-19T09:12:39.964Z,100266.34
2018-02-19T09:15:08.480Z,100268.19
2018-02-19T09:17:36.986Z,100266.42
2018-02-19T09:20:05.499Z,100262.06
2018-02-19T09:22:33.980Z,100265.61
2018-02-19T09:25:02.614Z,100263.21
2018-02-19T09:27:31.126Z,100263.94
2018-02-19T09:29:59.602Z,100265.92
2018-02-19T09:32:28.114Z,100256.78
2018-02-19T09:34:56.598Z,100268.63
2018-02-19T09:37:25.114Z,100264.47
2018-02-19T09:39:53.638Z,100271.33
2018-02-19T09:42:22.143Z,100274.25
2018-02-19T09:44:50.650Z,100275.69
2018-02-19T09:47:19.178Z,100272.99
2018-02-19T09:49:47.651Z,100263.01
2018-02-19T09:52:16.124Z,100285.02
2018-02-19T09:54:44.612Z,100278.91
2018-02-19T09:57:13.120Z,100256.05
2018-02-19T09:59:41.583Z,100237.88
2018-02-19T10:02:10.063Z,100257.41
2018-02-19T10:04:38.562Z,100275.25
2018-02-19T10:07:07.061Z,100255.95
2018-02-19T10:09:35.523Z,100273.70
2018-02-19T10:12:04.064Z,100271.11
2018-02-19T10:14:32.590Z,100270.91
2018-02-19T10:17:01.075Z,100274.45
2018-02-19T10:19:29.597Z,100264.89
2018-02-19T10:21:58.062Z,100262.39
2018-02-19T10:24:26.566Z,100251.80
2018-02-19T10:26:55.038Z,100262.59
2018-02-19T10:29:23.550Z,100268.63
2018-02-19T10:31:52.066Z,100252.01
2018-02-19T10:34:20.582Z,100245.46
2018-02-19T10:36:49.055Z,100254.40
2018-02-19T10:39:17.562Z,100249.94
2018-02-19T10:41:46.040Z,100245.33
2018-02-19T10:44:14.564Z,100261.55
2018-02-19T10:46:43.054Z,100257.39
2018-02-19T10:49:11.592Z,100260.56
2018-02-19T10:51:40.150Z,100199.98
2018-02-19T10:54:08.687Z,100257.03
2018-02-19T10:56:37.262Z,100243.11
2018-02-19T10:59:05.768Z,100238.55
2018-02-19T11:01:34.323Z,100252.36
2018-02-19T11:04:02.833Z,100252.19
2018-02-19T11:06:31.359Z,100184.55
2018-02-19T11:08:59.811Z,100250.13
2018-02-19T11:11:29.056Z,100236.33
2018-02-19T11:13:57.538Z,100244.02
2018-02-19T11:16:26.022Z,100242.64
2018-02-19T11:18:54.536Z,100241.19
2018-02-19T11:21:23.002Z,100246.80
2018-02-19T11:23:51.515Z,100240.47
2018-02-19T11:26:19.990Z,100232.89
2018-02-19T11:28:48.541Z,100218.88
2018-02-19T11:31:17.046Z,100232.06
2018-02-19T11:33:45.573Z,100214.94
2018-02-19T11:36:14.043Z,100207.86
2018-02-19T11:38:42.613Z,100228.43
2018-02-19T11:41:11.119Z,100222.22
2018-02-19T11:43:39.710Z,100218.86
2018-02-19T11:46:08.190Z,100220.23
2018-02-19T11:48:36.696Z,100227.70
2018-02-19T11:51:05.180Z,100213.47
2018-02-19T11:53:33.687Z,100226.57
2018-02-19T11:56:02.189Z,100212.97
2018-02-19T11:58:30.703Z,100222.61
2018-02-19T12:00:59.218Z,100199.06
2018-02-19T12:03:27.682Z,100216.40
2018-02-19T12:05:56.226Z,100223.97
2018-02-19T12:08:24.746Z,100230.09
2018-02-19T12:10:53.251Z,100215.45
2018-02-19T12:13:21.723Z,100229.27
2018-02-19T12:15:50.265Z,100223.23
2018-02-19T12:18:18.730Z,100228.34
2018-02-19T12:20:47.209Z,100229.88
2018-02-19T12:23:15.722Z,100222.63
2018-02-19T12:25:44.222Z,100225.64
2018-02-19T12:28:12.738Z,100207.36
2018-02-19T12:30:41.223Z,100221.05
2018-02-19T12:33:09.734Z,100205.91
2018-02-19T12:35:38.199Z,100217.13
2018-02-19T12:38:06.708Z,100217.73
2018-02-19T12:40:35.198Z,100225.61
2018-02-19T12:43:03.701Z,100217.09
2018-02-19T12:45:32.666Z,100221.56
2018-02-19T12:48:01.198Z,100221.25
2018-02-19T12:50:29.724Z,100201.84
2018-02-19T12:52:58.257Z,100222.81
2018-02-19T12:55:26.748Z,100220.02
2018-02-19T12:57:55.255Z,100220.81
2018-02-19T13:00:23.779Z,100213.35
2018-02-19T13:02:52.313Z,100217.39
2018-02-19T13:05:20.798Z,100198.09
2018-02-19T13:07:49.327Z,100202.13
2018-02-19T13:10:17.803Z,100209.17
2018-02-19T13:12:46.296Z,100214.17
2018-02-19T13:15:14.806Z,100213.03
2018-02-19T13:17:43.314Z,100216.77
2018-02-19T13:20:11.827Z,100211.69
2018-02-19T13:22:40.368Z,100205.47
2018-02-19T13:25:08.840Z,100200.05
2018-02-19T13:27:37.346Z,100205.69
2018-02-19T13:30:05.898Z,100197.58
2018-02-19T13:32:34.405Z,100207.53
2018-02-19T13:35:02.926Z,100197.17
2018-02-19T13:37:31.387Z,100204.23
2018-02-19T13:39:59.862Z,100189.89
2018-02-19T13:42:28.374Z,100199.94
2018-02-19T13:44:56.891Z,100202.95
2018-02-19T13:47:25.436Z,100203.80
2018-02-19T13:49:53.980Z,100204.25
2018-02-19T13:52:22.468Z,100198.42
2018-02-19T13:54:51.157Z,100190.63
2018-02-19T13:57:19.715Z,100195.42
2018-02-19T13:59:48.196Z,100200.92
2018-02-19T14:02:16.738Z,100196.03
2018-02-19T14:04:45.248Z,100189.81
2018-02-19T14:07:13.705Z,100196.45
2018-02-19T14:09:42.226Z,100200.38
2018-02-19T14:12:10.694Z,100187.53
2018-02-19T14:14:39.217Z,100195.09
2018-02-19T14:17:07.698Z,100199.46
2018-02-19T14:19:36.211Z,100188.23
2018-02-19T14:22:04.790Z,100192.91
2018-02-19T14:24:33.253Z,100193.86
2018-02-19T14:27:01.742Z,100189.69
2018-02-19T14:29:30.270Z,100192.26
2018-02-19T14:31:58.745Z,100196.35
2018-02-19T14:34:27.223Z,100194.79
2018-02-19T14:36:55.754Z,100193.23
2018-02-19T14:39:24.218Z,100199.46
2018-02-19T14:41:52.741Z,100192.38
2018-02-19T14:44:21.254Z,100188.05
2018-02-19T14:46:49.813Z,100195.20
2018-02-19T14:49:18.309Z,100191.89
2018-02-19T14:51:46.818Z,100195.94
2018-02-19T14:54:15.326Z,100198.67
2018-02-19T14:56:43.795Z,100202.06
2018-02-19T14:59:12.361Z,100204.77
2018-02-19T15:01:40.862Z,100181.49
2018-02-19T15:04:09.388Z,100203.50
2018-02-19T15:06:37.871Z,100200.98
2018-02-19T15:09:06.380Z,100192.61
2018-02-19T15:11:34.845Z,100206.95
2018-02-19T15:14:03.350Z,100200.51
2018-02-19T15:16:31.814Z,100205.45
2018-02-19T15:19:00.314Z,100210.94
2018-02-19T15:21:28.823Z,100197.58
2018-02-19T15:23:57.361Z,100193.13
2018-02-19T15:26:25.870Z,100211.73
2018-02-19T15:28:54.357Z,100208.77
2018-02-19T15:31:22.898Z,100213.25
2018-02-19T15:33:51.369Z,100200.30
2018-02-19T15:36:19.846Z,100212.67
2018-02-19T15:38:48.349Z,100213.80
2018-02-19T15:41:16.849Z,100223.56
2018-02-19T15:43:45.386Z,100205.55
2018-02-19T15:46:13.855Z,100222.57
2018-02-19T15:48:42.366Z,100224.36
2018-02-19T15:51:10.834Z,100226.11
2018-02-19T15:53:39.359Z,100202.16
2018-02-19T15:56:07.821Z,100225.02
2018-02-19T15:58:36.319Z,100222.03
2018-02-19T16:01:04.815Z,100228.31
2018-02-19T16:03:33.297Z,100221.23
2018-02-19T16:06:01.795Z,100209.02
2018-02-19T16:08:30.264Z,100227.23
2018-02-19T16:10:58.805Z,100225.96
2018-02-19T16:13:27.275Z,100234.00
2018-02-19T16:15:55.774Z,100235.76
2018-02-19T16:18:24.230Z,100241.70
2018-02-19T16:20:52.725Z,100237.75
2018-02-19T16:23:21.190Z,100242.95
2018-02-19T16:25:49.708Z,100242.72
2018-02-19T16:28:18.175Z,100248.70
2018-02-19T16:30:46.677Z,100247.13
2018-02-19T16:33:15.138Z,100237.86
2018-02-19T16:35:43.638Z,100246.58
2018-02-19T16:38:12.101Z,100244.88
2018-02-19T16:40:40.606Z,100256.14
2018-02-19T16:43:09.114Z,100249.92
2018-02-19T16:45:37.582Z,100257.70
2018-02-19T16:48:06.091Z,100259.17
2018-02-19T16:50:34.566Z,100250.41
2018-02-19T16:53:03.125Z,100260.06
2018-02-19T16:55:31.586Z,100259.06
2018-02-19T16:58:00.086Z,100245.59
2018-02-19T17:00:28.523Z,100254.23
2018-02-19T17:02:57.040Z,100253.27
2018-02-19T17:05:25.506Z,100257.16
2018-02-19T17:07:53.970Z,100243.31
2018-02-19T17:10:22.470Z,100250.95
2018-02-19T17:12:50.998Z,100250.80
2018-02-19T17:15:19.472Z,100253.91
2018-02-19T17:17:47.979Z,100249.48
2018-02-19T17:20:16.478Z,100246.46
2018-02-19T17:22:44.994Z,100248.74
2018-02-19T17:25:13.463Z,100251.44
2018-02-19T17:27:41.926Z,100248.45
2018-02-19T17:30:10.426Z,100253.20
2018-02-19T17:32:38.941Z,100249.45
2018-02-19T17:35:07.462Z,100248.37
2018-02-19T17:37:35.921Z,100252.07
2018-02-19T17:40:04.438Z,100252.26
2018-02-19T17:42:32.901Z,100248.97
2018-02-19T17:45:01.421Z,100257.05
2018-02-19T17:47:29.889Z,100254.13
2018-02-19T17:49:58.410Z,100253.13
2018-02-19T17:52:26.889Z,100258.84
2018-02-19T17:54:55.391Z,100261.95
2018-02-19T17:57:23.855Z,100266.55
2018-02-19T17:59:52.359Z,100265.42
2018-02-19T18:02:20.870Z,100256.78
2018-02-19T18:04:49.381Z,100266.02
2018-02-19T18:07:17.890Z,100266.69
2018-02-19T18:09:46.360Z,100263.13
2018-02-19T18:12:14.818Z,100261.45
2018-02-19T18:14:43.321Z,100251.41
2018-02-19T18:17:11.837Z,100259.12
2018-02-19T18:19:40.302Z,100264.21
2018-02-19T18:22:08.813Z,100266.78
2018-02-19T18:24:37.319Z,100263.87
2018-02-19T18:27:05.796Z,100263.50
2018-02-19T18:29:34.304Z,100265.44
2018-02-19T18:32:02.782Z,100260.54
2018-02-19T18:34:31.294Z,100269.05
2018-02-19T18:36:59.782Z,100264.19
2018-02-19T18:39:28.245Z,100259.80
2018-02-19T18:41:56.734Z,100267.65
2018-02-19T18:44:25.187Z,100266.09
2018-02-19T18:46:53.695Z,100259.41
2018-02-19T18:49:22.212Z,100267.79
2018-02-19T18:51:50.696Z,100267.66
2018-02-19T18:54:19.191Z,100262.22
2018-02-19T18:56:47.712Z,100265.84
2018-02-19T18:59:16.155Z,100268.14
2018-02-19T19:01:44.607Z,100263.05
2018-02-19T19:04:13.102Z,100261.71
2018-02-19T19:06:41.583Z,100260.77
2018-02-19T19:09:21.866Z,100261.43
2018-02-19T19:11:50.357Z,100256.92
2018-02-19T19:14:18.823Z,100255.82
2018-02-19T19:16:47.285Z,100262.67
2018-02-19T19:19:15.788Z,100255.87
2018-02-19T19:21:44.246Z,100265.16
2018-02-19T19:24:12.694Z,100258.97
2018-02-19T19:26:41.190Z,100260.55
2018-02-19T19:29:09.646Z,100265.64
2018-02-19T19:31:38.103Z,100258.14
2018-02-19T19:34:06.614Z,100259.34
2018-02-19T19:36:35.114Z,100247.28
2018-02-19T19:39:03.660Z,100264.64
2018-02-19T19:41:32.149Z,100257.22
2018-02-19T19:44:00.617Z,100256.69
2018-02-19T19:46:29.124Z,100250.90
2018-02-19T19:48:57.638Z,100258.44
2018-02-19T19:51:26.092Z,100252.30
2018-02-19T19:53:54.628Z,100253.06
2018-02-19T19:56:23.118Z,100254.70
2018-02-19T19:58:51.566Z,100247.52
2018-02-19T20:01:20.036Z,100254.98
2018-02-19T20:03:48.558Z,100248.98
2018-02-19T20:06:17.046Z,100251.84
2018-02-19T20:08:45.513Z,100249.04
2018-02-19T20:11:14.027Z,100245.76
2018-02-19T20:13:42.531Z,100247.80
2018-02-19T20:16:10.973Z,100246.30
2018-02-19T20:18:39.454Z,100252.53
2018-02-19T20:21:07.963Z,100239.09
2018-02-19T20:23:36.474Z,100249.32
2018-02-19T20:26:04.930Z,100244.60
2018-02-19T20:28:33.447Z,100244.77
2018-02-19T20:31:01.929Z,100250.68
2018-02-19T20:33:30.424Z,100247.56
2018-02-19T20:35:58.885Z,100244.19
2018-02-19T20:38:27.369Z,100237.45
2018-02-19T20:40:55.844Z,100247.46
2018-02-19T20:43:24.326Z,100226.25
2018-02-19T20:45:52.810Z,100236.77
2018-02-19T20:48:21.306Z,100242.20
2018-02-19T20:50:49.808Z,100239.45
2018-02-19T20:53:18.320Z,100238.75
2018-02-19T20:55:46.774Z,100229.46
2018-02-19T20:58:15.229Z,100228.16
2018-02-19T21:00:43.730Z,100230.33
2018-02-19T21:03:12.194Z,100228.68
2018-02-19T21:05:40.682Z,100233.77
2018-02-19T21:08:09.133Z,100232.38
2018-02-19T21:10:37.614Z,100234.26
2018-02-19T21:13:06.090Z,100211.67
2018-02-19T21:15:34.575Z,100230.61
2018-02-19T21:18:03.031Z,100227.99
2018-02-19T21:20:31.519Z,100224.02
2018-02-19T21:22:59.986Z,100231.08
2018-02-19T21:25:28.474Z,100230.56
2018-02-19T21:27:56.981Z,100228.57
2018-02-19T21:30:25.475Z,100227.23
2018-02-19T21:32:53.926Z,100221.21
2018-02-19T21:35:22.437Z,100223.13
2018-02-19T21:37:50.893Z,100221.14
2018-02-19T21:40:19.393Z,100218.87
2018-02-19T21:42:47.858Z,100218.83
2018-02-19T21:45:16.356Z,100221.97
2018-02-19T21:47:44.860Z,100217.11
2018-02-19T21:50:13.320Z,100219.87
2018-02-19T21:52:41.814Z,100217.89
2018-02-19T21:55:10.294Z,100222.14
2018-02-19T21:57:38.782Z,100221.49
2018-02-19T22:00:07.235Z,100204.91
2018-02-19T22:02:35.754Z,100223.77
2018-02-19T22:05:04.242Z,100217.59
2018-02-19T22:07:32.690Z,100220.13
2018-02-19T22:10:01.117Z,100224.24
2018-02-19T22:12:29.525Z,100227.91
2018-02-19T22:14:57.954Z,100226.44
2018-02-19T22:17:26.378Z,100226.84
2018-02-19T22:19:54.965Z,100224.13
2018-02-19T22:22:23.361Z,100226.60
2018-02-19T22:24:51.809Z,100227.30
2018-02-19T22:27:20.209Z,100223.27
2018-02-19T22:29:48.605Z,100232.89
2018-02-19T22:32:17.085Z,100231.85
2018-02-19T22:34:45.489Z,100229.22
2018-02-19T22:37:13.933Z,100236.41
2018-02-19T22:39:42.341Z,100233.53
2018-02-19T22:42:10.780Z,100230.80
2018-02-19T22:44:39.210Z,100230.20
2018-02-19T22:47:07.653Z,100226.06
2018-02-19T22:49:36.101Z,100233.95
2018-02-19T22:52:04.511Z,100226.12
2018-02-19T22:54:32.949Z,100222.22
2018-02-19T22:57:01.385Z,100227.53
2018-02-19T22:59:29.837Z,100227.41
2018-02-19T23:01:58.237Z,100217.70
2018-02-19T23:04:26.706Z,100221.86
2018-02-19T23:06:55.113Z,100224.38
2018-02-19T23:09:23.510Z,100222.16
2018-02-19T23:11:51.969Z,100224.33
2018-02-19T23:14:20.377Z,100221.52
2018-02-19T23:16:48.817Z,100211.28
2018-02-19T23:19:17.638Z,100206.63
2018-02-19T23:21:46.579Z,100214.13
2018-02-19T23:24:15.942Z,100206.47
2018-02-19T23:26:44.428Z,100214.91
2018-02-19T23:29:12.833Z,100201.11
2018-02-19T23:31:41.281Z,100204.33
2018-02-19T23:34:09.737Z,100199.06
2018-02-19T23:36:38.568Z,100201.70
2018-02-19T23:39:07.057Z,100197.16
2018-02-19T23:41:35.505Z,100195.27
2018-02-19T23:44:03.905Z,100186.05
2018-02-19T23:46:32.361Z,100183.16
2018-02-19T23:49:00.763Z,100184.79
2018-02-19T23:51:29.213Z,100182.47
2018-02-19T23:53:57.618Z,100185.51
2018-02-19T23:56:26.077Z,100173.05
2018-02-19T23:58:54.537Z,100180.34
